createdAt,value
2022-12-13T00:04:05.018Z,12.07
2022-12-13T00:08:08.124Z,11.13
2022-12-13T00:12:11.324Z,12.50
2022-12-13T00:16:16.363Z,10.07
2022-12-13T00:20:20.801Z,10.23
2022-12-13T00:24:23.867Z,10.50
2022-12-13T00:28:26.880Z,10.47
2022-12-13T00:32:29.889Z,11.70
2022-12-13T00:37:08.225Z,10.93
2022-12-13T00:41:13.343Z,12.63
2022-12-13T00:45:16.808Z,10.60
2022-12-13T00:49:20.126Z,10.10
2022-12-13T00:53:24.516Z,10.90
2022-12-13T00:57:28.576Z,9.87
2022-12-13T01:01:33.760Z,10.93
2022-12-13T01:06:15.930Z,10.70
2022-12-13T01:10:21.119Z,9.53
2022-12-13T01:14:24.209Z,9.43
2022-12-13T01:18:27.265Z,10.13
2022-12-13T01:22:30.274Z,8.63
2022-12-13T01:26:35.170Z,11.00
2022-12-13T01:30:38.183Z,10.80
2022-12-13T01:35:14.063Z,9.73
2022-12-13T01:39:20.294Z,8.53
2022-12-13T01:43:53.100Z,9.37
2022-12-13T01:48:00.164Z,8.77
2022-12-13T01:52:32.118Z,9.37
2022-12-13T01:56:39.923Z,8.67
2022-12-13T02:00:45.439Z,10.53
2022-12-13T02:04:54.608Z,10.13
2022-12-13T02:08:58.721Z,10.43
2022-12-13T02:13:56.859Z,10.33
2022-12-13T02:18:23.105Z,9.47
2022-12-13T02:22:49.213Z,9.03
2022-12-13T02:27:12.060Z,9.60
2022-12-13T02:31:19.479Z,9.57
2022-12-13T02:35:27.455Z,9.73
2022-12-13T02:39:34.393Z,9.77
2022-12-13T02:43:45.443Z,9.43
2022-12-13T02:48:16.437Z,9.80
2022-12-13T02:52:22.890Z,9.90
2022-12-13T02:56:25.930Z,8.83
2022-12-13T03:05:12.723Z,9.23
2022-12-13T03:09:38.274Z,8.63
2022-12-13T03:13:50.379Z,8.90
2022-12-13T03:17:57.213Z,9.20
2022-12-13T03:22:01.630Z,10.33
2022-12-13T03:26:09.631Z,10.73
2022-12-13T03:30:13.904Z,11.67
2022-12-13T03:34:22.366Z,10.67
2022-12-13T03:38:27.858Z,11.93
2022-12-13T03:42:30.937Z,10.87
2022-12-13T03:46:34.058Z,12.33
2022-12-13T03:50:37.199Z,10.07
2022-12-13T03:54:45.130Z,8.97
2022-12-13T03:58:48.564Z,13.30
2022-12-13T04:02:53.203Z,13.43
2022-12-13T04:06:56.415Z,13.30
2022-12-13T04:11:20.825Z,13.63
2022-12-13T04:15:23.908Z,14.23
2022-12-13T04:19:26.938Z,12.17
2022-12-13T04:23:29.963Z,11.03
2022-12-13T04:27:34.898Z,14.27
2022-12-13T04:31:38.036Z,14.47
2022-12-13T04:35:41.158Z,13.87
2022-12-13T04:39:47.701Z,13.63
2022-12-13T04:43:54.213Z,14.00
2022-12-13T04:47:57.288Z,14.83
2022-12-13T04:52:01.839Z,14.27
2022-12-13T04:56:06.825Z,14.00
2022-12-13T05:00:14.567Z,16.03
2022-12-13T05:04:18.087Z,15.47
2022-12-13T05:08:21.637Z,16.13
2022-12-13T05:12:24.802Z,17.60
2022-12-13T05:16:29.244Z,15.43
2022-12-13T05:20:32.268Z,16.00
2022-12-13T05:24:35.300Z,17.40
2022-12-13T05:28:38.331Z,16.20
2022-12-13T05:32:44.894Z,15.13
2022-12-13T05:36:48.091Z,11.00
2022-12-13T05:40:51.277Z,16.33
2022-12-13T05:44:54.757Z,16.70
2022-12-13T05:48:59.353Z,16.23
2022-12-13T05:53:02.388Z,14.23
2022-12-13T05:57:05.846Z,16.00
2022-12-13T06:01:10.844Z,14.93
2022-12-13T06:05:15.425Z,14.73
2022-12-13T06:09:18.766Z,16.83
2022-12-13T06:13:32.229Z,15.20
2022-12-13T06:17:36.985Z,16.77
2022-12-13T06:21:46.056Z,14.27
2022-12-13T06:25:51.715Z,13.77
2022-12-13T06:29:56.816Z,13.97
2022-12-13T06:34:13.636Z,14.17
2022-12-13T06:38:31.212Z,14.87
2022-12-13T06:42:35.212Z,14.90
2022-12-13T06:46:40.790Z,14.40
2022-12-13T06:50:44.193Z,15.57
2022-12-13T06:54:48.616Z,14.50
2022-12-13T06:58:51.664Z,13.73
2022-12-13T07:02:55.262Z,14.80
2022-12-13T07:07:01.861Z,14.70
2022-12-13T07:11:07.301Z,13.37
2022-12-13T07:15:11.478Z,13.10
2022-12-13T07:19:23.803Z,14.97
2022-12-13T07:23:27.605Z,13.53
2022-12-13T07:27:32.141Z,12.63
2022-12-13T07:31:36.636Z,13.53
2022-12-13T07:35:40.025Z,14.93
2022-12-13T07:39:43.064Z,13.67
2022-12-13T07:43:47.723Z,14.30
2022-12-13T07:47:58.402Z,12.57
2022-12-13T07:52:01.396Z,13.67
2022-12-13T07:56:04.965Z,12.10
2022-12-13T08:00:11.035Z,13.23
2022-12-13T08:04:14.200Z,11.87
2022-12-13T08:08:19.809Z,12.80
2022-12-13T08:12:23.191Z,11.03
2022-12-13T08:16:29.633Z,10.57
2022-12-13T08:20:33.201Z,10.33
2022-12-13T08:24:36.751Z,11.03
2022-12-13T08:28:40.047Z,10.03
2022-12-13T08:32:44.911Z,9.33
2022-12-13T08:36:48.030Z,10.03
2022-12-13T08:40:51.501Z,9.80
2022-12-13T08:44:55.079Z,9.73
2022-12-13T08:48:59.529Z,9.60
2022-12-13T08:53:02.888Z,9.57
2022-12-13T08:57:06.157Z,8.93
2022-12-13T09:01:09.570Z,9.20
2022-12-13T09:05:33.868Z,9.53
2022-12-13T09:09:37.730Z,9.13
2022-12-13T09:13:43.226Z,8.93
2022-12-13T09:17:47.348Z,9.97
2022-12-13T09:22:02.470Z,8.47
2022-12-13T09:26:06.446Z,8.33
2022-12-13T09:30:13.264Z,8.70
2022-12-13T09:34:16.383Z,7.90
2022-12-13T09:38:21.192Z,9.10
2022-12-13T09:42:30.758Z,8.00
2022-12-13T09:46:44.598Z,8.20
2022-12-13T09:50:57.937Z,7.77
2022-12-13T09:55:07.924Z,9.17
2022-12-13T09:59:15.971Z,8.63
2022-12-13T10:03:21.986Z,9.43
2022-12-13T10:07:26.202Z,8.97
2022-12-13T10:11:31.180Z,9.27
2022-12-13T10:15:38.948Z,8.97
2022-12-13T10:19:45.228Z,8.97
2022-12-13T10:28:13.419Z,9.07
2022-12-13T10:32:18.995Z,9.50
2022-12-13T10:36:34.032Z,9.00
2022-12-13T10:40:40.474Z,8.73
2022-12-13T10:44:45.225Z,9.70
2022-12-13T10:48:50.580Z,9.80
2022-12-13T10:52:54.233Z,8.03
2022-12-13T10:57:01.186Z,8.63
2022-12-13T11:01:49.630Z,8.67
2022-12-13T11:06:21.648Z,7.20
2022-12-13T11:10:27.875Z,8.30
2022-12-13T11:14:40.294Z,7.30
2022-12-13T11:18:53.485Z,7.30
2022-12-13T11:23:27.254Z,7.77
2022-12-13T11:28:05.684Z,7.47
2022-12-13T11:32:40.856Z,6.30
2022-12-13T11:36:51.009Z,6.33
2022-12-13T11:41:00.332Z,7.53
2022-12-13T11:45:32.796Z,7.30
2022-12-13T11:49:40.612Z,8.80
2022-12-13T11:53:53.059Z,8.10
2022-12-13T11:58:02.920Z,8.20
2022-12-13T12:02:33.724Z,9.03
2022-12-13T12:06:42.105Z,8.10
2022-12-13T12:10:50.252Z,8.67
2022-12-13T12:15:27.377Z,8.60
2022-12-13T12:19:37.740Z,8.00
2022-12-13T12:23:54.773Z,7.70
2022-12-13T12:28:06.485Z,8.60
2022-12-13T12:32:22.909Z,8.27
2022-12-13T12:36:37.830Z,8.77
2022-12-13T12:41:21.194Z,9.07
2022-12-13T12:45:55.977Z,7.43
2022-12-13T12:50:19.429Z,9.03
2022-12-13T12:54:34.131Z,8.97
2022-12-13T12:58:45.029Z,8.13
2022-12-13T13:03:01.794Z,8.13
2022-12-13T13:07:22.929Z,7.80
2022-12-13T13:11:29.991Z,10.33
2022-12-13T13:15:55.715Z,7.77
2022-12-13T13:20:23.657Z,7.10
2022-12-13T13:24:29.302Z,7.13
2022-12-13T13:28:34.001Z,8.17
2022-12-13T13:32:41.087Z,7.17
2022-12-13T13:36:47.710Z,7.07
2022-12-13T13:41:27.999Z,8.17
2022-12-13T13:45:49.944Z,7.20
2022-12-13T13:50:02.342Z,7.37
2022-12-13T13:54:48.477Z,7.17
2022-12-13T13:59:41.190Z,7.43
2022-12-13T14:04:22.684Z,7.47
2022-12-13T14:08:42.831Z,8.03
2022-12-13T14:13:38.733Z,7.47
2022-12-13T14:18:28.663Z,7.53
2022-12-13T14:22:56.614Z,7.00
2022-12-13T14:27:17.934Z,8.60
2022-12-13T14:31:24.549Z,14.80
2022-12-13T14:35:59.101Z,11.83
2022-12-13T14:40:35.858Z,12.30
2022-12-13T14:45:23.063Z,13.87
2022-12-13T14:49:28.724Z,9.57
2022-12-13T14:53:38.217Z,8.07
2022-12-13T14:57:41.226Z,7.30
2022-12-13T15:02:17.921Z,6.63
2022-12-13T15:06:36.012Z,7.33
2022-12-13T15:10:41.289Z,8.30
2022-12-13T15:15:23.313Z,8.57
2022-12-13T15:19:29.375Z,10.23
2022-12-13T15:23:49.258Z,8.33
2022-12-13T15:28:18.111Z,7.70
2022-12-13T15:32:23.873Z,7.87
2022-12-13T15:36:28.062Z,8.53
2022-12-13T15:40:32.575Z,9.10
2022-12-13T15:44:42.204Z,8.43
2022-12-13T15:48:48.270Z,9.37
2022-12-13T15:53:25.560Z,7.57
2022-12-13T15:57:31.821Z,8.07
2022-12-13T16:01:36.868Z,7.30
2022-12-13T16:05:43.580Z,7.40
2022-12-13T16:09:50.388Z,8.13
2022-12-13T16:13:58.249Z,7.33
2022-12-13T16:18:32.563Z,9.30
2022-12-13T16:22:35.709Z,8.63
2022-12-13T16:26:39.014Z,8.17
2022-12-13T16:31:03.319Z,7.60
2022-12-13T16:35:07.059Z,7.90
2022-12-13T16:39:41.559Z,8.80
2022-12-13T16:43:53.766Z,8.07
2022-12-13T16:47:58.396Z,7.30
2022-12-13T16:52:03.230Z,7.50
2022-12-13T16:56:39.822Z,7.80
2022-12-13T17:00:45.155Z,6.93
2022-12-13T17:04:49.623Z,7.33
2022-12-13T17:09:24.266Z,8.23
2022-12-13T17:13:28.177Z,8.57
2022-12-13T17:17:31.604Z,9.37
2022-12-13T17:21:36.166Z,9.63
2022-12-13T17:25:39.991Z,8.73
2022-12-13T17:29:43.176Z,13.70
2022-12-13T17:34:19.823Z,14.77
2022-12-13T17:38:24.502Z,9.43
2022-12-13T17:42:58.143Z,10.00
2022-12-13T17:47:01.178Z,9.10
2022-12-13T17:51:38.387Z,10.53
2022-12-13T17:56:17.755Z,10.40
2022-12-13T18:00:51.269Z,9.73
2022-12-13T18:04:54.385Z,9.70
2022-12-13T18:08:57.489Z,9.43
2022-12-13T18:13:01.936Z,11.77
2022-12-13T18:18:09.583Z,10.23
2022-12-13T18:22:11.908Z,9.57
2022-12-13T18:26:45.741Z,10.03
2022-12-13T18:31:24.789Z,9.90
2022-12-13T18:35:58.783Z,10.00
2022-12-13T18:40:35.850Z,11.50
2022-12-13T18:45:13.056Z,10.07
2022-12-13T18:49:17.645Z,10.27
2022-12-13T18:53:52.527Z,11.60
2022-12-13T18:58:29.652Z,11.77
2022-12-13T19:03:06.601Z,11.90
2022-12-13T19:07:44.824Z,11.77
2022-12-13T19:12:18.960Z,11.60
2022-12-13T19:16:55.883Z,11.13
2022-12-13T19:20:58.890Z,10.63
2022-12-13T19:25:03.668Z,12.17
2022-12-13T19:29:06.742Z,13.13
2022-12-13T19:33:43.815Z,12.50
2022-12-13T19:37:46.969Z,12.10
2022-12-13T19:42:25.263Z,12.73
2022-12-13T19:46:28.377Z,11.27
2022-12-13T19:50:31.756Z,11.60
2022-12-13T19:55:08.854Z,11.47
2022-12-13T19:59:47.374Z,12.63
2022-12-13T20:04:24.334Z,13.83
2022-12-13T20:09:01.031Z,10.87
2022-12-13T20:13:39.497Z,11.63
2022-12-13T20:18:14.988Z,12.57
2022-12-13T20:22:18.162Z,11.60
2022-12-13T20:26:57.943Z,11.87
2022-12-13T20:31:06.905Z,11.20
2022-12-13T20:36:15.150Z,13.60
2022-12-13T20:40:22.956Z,13.50
2022-12-13T20:44:53.736Z,13.10
2022-12-13T20:48:58.753Z,14.93
2022-12-13T20:53:03.318Z,9.97
2022-12-13T20:57:06.352Z,13.93
2022-12-13T21:01:45.246Z,13.77
2022-12-13T21:06:19.965Z,13.17
2022-12-13T21:10:24.390Z,15.33
2022-12-13T21:14:28.882Z,12.70
2022-12-13T21:18:31.907Z,12.27
2022-12-13T21:23:08.512Z,11.83
2022-12-13T21:27:12.883Z,11.47
2022-12-13T21:31:15.972Z,14.17
2022-12-13T21:35:19.079Z,14.50
2022-12-13T21:39:55.756Z,9.93
2022-12-13T21:44:00.612Z,10.03
2022-12-13T21:48:03.834Z,13.00
2022-12-13T21:52:44.038Z,11.37
2022-12-13T21:57:08.491Z,11.23
2022-12-13T22:01:13.056Z,12.60
2022-12-13T22:05:16.104Z,12.43
2022-12-13T22:10:13.941Z,14.27
2022-12-13T22:14:16.934Z,14.47
2022-12-13T22:18:21.417Z,13.27
2022-12-13T22:22:26.216Z,11.87
2022-12-13T22:26:29.270Z,13.80
2022-12-13T22:30:33.890Z,15.40
2022-12-13T22:34:38.313Z,13.80
2022-12-13T22:38:41.361Z,15.23
2022-12-13T22:43:20.821Z,12.30
2022-12-13T22:47:23.956Z,14.53
2022-12-13T22:51:28.579Z,12.73
2022-12-13T22:55:31.742Z,11.50
2022-12-13T23:00:10.327Z,13.97
2022-12-13T23:04:13.526Z,13.87
2022-12-13T23:08:18.006Z,13.90
2022-12-13T23:12:38.544Z,13.70
2022-12-13T23:16:42.486Z,10.43
2022-12-13T23:20:48.575Z,13.77
2022-12-13T23:24:53.984Z,10.57
2022-12-13T23:28:59.333Z,13.93
2022-12-13T23:33:33.403Z,13.23
2022-12-13T23:37:36.561Z,11.23
2022-12-13T23:41:40.988Z,10.60
2022-12-13T23:45:44.077Z,8.93
2022-12-13T23:49:48.352Z,12.80
2022-12-13T23:53:51.530Z,13.67
2022-12-13T23:57:55.961Z,13.63
